Startpagina
METAR-TAF:

METAR-TAF

Vliegvelden :

London Southend Airport

Londen-Southend, Engeland

breedte: 51-34N, lengte: 000-42E, hoogte: 15 m

Actueel weer

Dit bericht is 41 minuten geleden gemaakt, om 01:50 UTC
Wind 7 kt uit het oosten
Temperatuur 14°C
Vochtigheid 72%
Druk 1018 hPa
Zicht 10 km of meer
geen wolken onder 1500 m en geen cumulonimbus

METAR: EGMC 210150Z 10007KT CAVOK 14/09 Q1018

Tijdstip: 03:31 (02:31 UTC)

Verwachting

Dit bericht is 35 minuten geleden gemaakt, om 01:56 UTC
Verwachting geldig van 21 om 03 UTC tot 21 om 12 UTC
Wind 9 kt uit het oostzuidoosten
Zicht 10 km of meer
geen wolken onder 1500 m en geen cumulonimbus

TAF: EGMC 210156Z 2103/2112 11009KT CAVOK

Waarnemingen en weersverwachtingen van meer dan 4000 vliegvelden (METAR en TAF).

De beschikbare stations zijn de gele en rode punten op de kaart.

Ga met uw muis naar het station om de naam te zien.

Klik dan om waarnemingen en weersverwachtingen te zien.

kaart wijzigen: klik op de groene knoppen met een zwart kruis om in te zoomen, op de groene knop met een streepje om uit te zoomen of op de groene pijlen voor aangrenzende kaarten.


METAR-TAF: